sensor_id;sensor_type;location;lat;lon;timestamp;P1;durP1;ratioP1;P2;durP2;ratioP2
18190;SDS011;47004;51.366;12.348;2022-08-01T00:01:17;3.17;;;2.87;;
18190;SDS011;47004;51.366;12.348;2022-08-01T00:03:19;3.23;;;2.93;;
18190;SDS011;47004;51.366;12.348;2022-08-01T00:05:20;4.40;;;2.90;;
18190;SDS011;47004;51.366;12.348;2022-08-01T00:07:24;3.40;;;3.00;;
18190;SDS011;47004;51.366;12.348;2022-08-01T00:09:26;3.17;;;2.83;;
18190;SDS011;47004;51.366;12.348;2022-08-01T00:11:27;3.40;;;3.10;;
18190;SDS011;47004;51.366;12.348;2022-08-01T00:13:29;3.20;;;2.87;;
18190;SDS011;47004;51.366;12.348;2022-08-01T00:15:31;3.40;;;3.10;;
18190;SDS011;47004;51.366;12.348;2022-08-01T00:17:33;5.90;;;3.00;;
18190;SDS011;47004;51.366;12.348;2022-08-01T00:19:35;4.37;;;2.97;;
18190;SDS011;47004;51.366;12.348;2022-08-01T00:21:37;3.40;;;3.10;;
18190;SDS011;47004;51.366;12.348;2022-08-01T00:23:41;3.57;;;3.27;;
18190;SDS011;47004;51.366;12.348;2022-08-01T00:25:43;3.23;;;2.93;;
18190;SDS011;47004;51.366;12.348;2022-08-01T00:27:45;3.50;;;3.20;;
18190;SDS011;47004;51.366;12.348;2022-08-01T00:29:47;3.30;;;3.00;;
18190;SDS011;47004;51.366;12.348;2022-08-01T00:31:49;3.10;;;2.80;;
18190;SDS011;47004;51.366;12.348;2022-08-01T00:33:50;3.57;;;2.97;;
18190;SDS011;47004;51.366;12.348;2022-08-01T00:35:52;3.87;;;3.40;;
18190;SDS011;47004;51.366;12.348;2022-08-01T00:37:55;6.17;;;3.60;;
18190;SDS011;47004;51.366;12.348;2022-08-01T00:39:58;5.00;;;3.37;;
18190;SDS011;47004;51.366;12.348;2022-08-01T00:42:00;5.07;;;3.70;;
18190;SDS011;47004;51.366;12.348;2022-08-01T00:44:07;4.30;;;3.17;;
18190;SDS011;47004;51.366;12.348;2022-08-01T00:46:09;6.10;;;3.10;;
18190;SDS011;47004;51.366;12.348;2022-08-01T00:48:11;4.57;;;3.50;;
18190;SDS011;47004;51.366;12.348;2022-08-01T00:50:12;5.00;;;3.83;;
18190;SDS011;47004;51.366;12.348;2022-08-01T00:52:14;4.23;;;3.17;;
18190;SDS011;47004;51.366;12.348;2022-08-01T00:54:16;4.40;;;3.47;;
18190;SDS011;47004;51.366;12.348;2022-08-01T00:56:20;4.17;;;3.77;;
18190;SDS011;47004;51.366;12.348;2022-08-01T00:58:25;4.20;;;3.53;;
18190;SDS011;47004;51.366;12.348;2022-08-01T01:00:29;4.00;;;3.17;;
18190;SDS011;47004;51.366;12.348;2022-08-01T01:02:32;4.07;;;3.67;;
18190;SDS011;47004;51.366;12.348;2022-08-01T01:04:34;3.80;;;3.20;;
18190;SDS011;47004;51.366;12.348;2022-08-01T01:06:40;4.83;;;3.20;;
18190;SDS011;47004;51.366;12.348;2022-08-01T01:09:02;4.10;;;3.70;;
18190;SDS011;47004;51.366;12.348;2022-08-01T01:11:13;4.50;;;3.37;;
18190;SDS011;47004;51.366;12.348;2022-08-01T01:13:28;4.27;;;3.70;;
18190;SDS011;47004;51.366;12.348;2022-08-01T01:15:37;4.53;;;3.77;;
18190;SDS011;47004;51.366;12.348;2022-08-01T01:17:44;5.67;;;3.90;;
18190;SDS011;47004;51.366;12.348;2022-08-01T01:19:50;4.70;;;3.80;;
18190;SDS011;47004;51.366;12.348;2022-08-01T01:22:04;3.97;;;3.57;;
18190;SDS011;47004;51.366;12.348;2022-08-01T01:24:32;3.90;;;3.50;;
18190;SDS011;47004;51.366;12.348;2022-08-01T01:26:43;5.03;;;4.10;;
18190;SDS011;47004;51.366;12.348;2022-08-01T01:29:02;6.00;;;3.90;;
18190;SDS011;47004;51.366;12.348;2022-08-01T01:31:06;5.97;;;4.30;;
18190;SDS011;47004;51.366;12.348;2022-08-01T01:33:12;4.60;;;3.70;;
18190;SDS011;47004;51.366;12.348;2022-08-01T01:35:15;4.57;;;3.87;;
18190;SDS011;47004;51.366;12.348;2022-08-01T01:37:20;4.80;;;4.10;;
18190;SDS011;47004;51.366;12.348;2022-08-01T01:39:24;4.33;;;3.93;;
18190;SDS011;47004;51.366;12.348;2022-08-01T01:41:27;4.27;;;3.80;;
18190;SDS011;47004;51.366;12.348;2022-08-01T01:43:31;5.20;;;4.43;;
18190;SDS011;47004;51.366;12.348;2022-08-01T01:45:35;6.47;;;3.80;;
18190;SDS011;47004;51.366;12.348;2022-08-01T01:47:38;4.73;;;3.90;;
18190;SDS011;47004;51.366;12.348;2022-08-01T01:49:42;5.33;;;3.50;;
18190;SDS011;47004;51.366;12.348;2022-08-01T01:51:47;5.53;;;3.60;;
18190;SDS011;47004;51.366;12.348;2022-08-01T01:53:51;4.33;;;3.50;;
18190;SDS011;47004;51.366;12.348;2022-08-01T01:55:55;6.27;;;3.83;;
18190;SDS011;47004;51.366;12.348;2022-08-01T01:57:59;4.57;;;3.87;;
18190;SDS011;47004;51.366;12.348;2022-08-01T02:00:02;4.10;;;3.70;;
18190;SDS011;47004;51.366;12.348;2022-08-01T02:02:07;5.83;;;4.60;;
18190;SDS011;47004;51.366;12.348;2022-08-01T02:04:11;5.43;;;4.33;;
18190;SDS011;47004;51.366;12.348;2022-08-01T02:06:14;6.20;;;4.40;;
18190;SDS011;47004;51.366;12.348;2022-08-01T02:08:16;5.30;;;4.10;;
18190;SDS011;47004;51.366;12.348;2022-08-01T02:10:18;5.03;;;3.90;;
18190;SDS011;47004;51.366;12.348;2022-08-01T02:12:21;5.67;;;4.50;;
18190;SDS011;47004;51.366;12.348;2022-08-01T02:14:23;4.60;;;4.17;;
18190;SDS011;47004;51.366;12.348;2022-08-01T02:16:27;5.37;;;4.10;;
18190;SDS011;47004;51.366;12.348;2022-08-01T02:18:34;4.70;;;4.17;;
18190;SDS011;47004;51.366;12.348;2022-08-01T02:20:36;5.47;;;4.57;;
18190;SDS011;47004;51.366;12.348;2022-08-01T02:22:40;6.30;;;4.23;;
18190;SDS011;47004;51.366;12.348;2022-08-01T02:24:47;5.57;;;4.37;;
18190;SDS011;47004;51.366;12.348;2022-08-01T02:26:53;8.83;;;4.83;;
18190;SDS011;47004;51.366;12.348;2022-08-01T02:28:59;5.30;;;4.23;;
18190;SDS011;47004;51.366;12.348;2022-08-01T02:31:07;4.40;;;4.00;;
18190;SDS011;47004;51.366;12.348;2022-08-01T02:33:15;4.20;;;3.80;;
18190;SDS011;47004;51.366;12.348;2022-08-01T02:35:22;8.43;;;4.17;;
18190;SDS011;47004;51.366;12.348;2022-08-01T02:37:26;4.53;;;4.00;;
18190;SDS011;47004;51.366;12.348;2022-08-01T02:39:31;5.20;;;3.93;;
18190;SDS011;47004;51.366;12.348;2022-08-01T02:41:36;5.13;;;4.10;;
18190;SDS011;47004;51.366;12.348;2022-08-01T02:43:43;4.20;;;3.73;;
18190;SDS011;47004;51.366;12.348;2022-08-01T02:45:49;4.93;;;4.03;;
18190;SDS011;47004;51.366;12.348;2022-08-01T02:47:55;4.23;;;3.80;;
18190;SDS011;47004;51.366;12.348;2022-08-01T02:50:00;5.13;;;4.20;;
18190;SDS011;47004;51.366;12.348;2022-08-01T02:52:07;5.20;;;3.90;;
18190;SDS011;47004;51.366;12.348;2022-08-01T02:54:11;5.63;;;4.17;;
18190;SDS011;47004;51.366;12.348;2022-08-01T02:56:14;4.50;;;3.60;;
18190;SDS011;47004;51.366;12.348;2022-08-01T02:58:18;4.73;;;4.13;;
18190;SDS011;47004;51.366;12.348;2022-08-01T03:00:24;4.57;;;4.13;;
18190;SDS011;47004;51.366;12.348;2022-08-01T03:02:26;5.23;;;3.70;;
18190;SDS011;47004;51.366;12.348;2022-08-01T03:04:32;4.20;;;3.73;;
18190;SDS011;47004;51.366;12.348;2022-08-01T03:06:35;4.20;;;3.80;;
18190;SDS011;47004;51.366;12.348;2022-08-01T03:08:39;5.17;;;4.20;;
18190;SDS011;47004;51.366;12.348;2022-08-01T03:10:42;4.83;;;4.00;;
18190;SDS011;47004;51.366;12.348;2022-08-01T03:12:46;4.67;;;3.80;;
18190;SDS011;47004;51.366;12.348;2022-08-01T03:14:50;4.37;;;3.67;;
18190;SDS011;47004;51.366;12.348;2022-08-01T03:16:54;4.60;;;3.67;;
18190;SDS011;47004;51.366;12.348;2022-08-01T03:18:57;4.00;;;3.53;;
18190;SDS011;47004;51.366;12.348;2022-08-01T03:21:01;4.60;;;3.63;;
18190;SDS011;47004;51.366;12.348;2022-08-01T03:23:06;4.53;;;3.77;;
18190;SDS011;47004;51.366;12.348;2022-08-01T03:25:11;4.67;;;3.40;;
18190;SDS011;47004;51.366;12.348;2022-08-01T03:27:14;4.10;;;3.53;;
18190;SDS011;47004;51.366;12.348;2022-08-01T03:29:18;3.93;;;3.40;;
18190;SDS011;47004;51.366;12.348;2022-08-01T03:31:25;4.57;;;3.30;;
18190;SDS011;47004;51.366;12.348;2022-08-01T03:33:27;3.47;;;3.17;;
18190;SDS011;47004;51.366;12.348;2022-08-01T03:35:31;3.80;;;3.27;;
18190;SDS011;47004;51.366;12.348;2022-08-01T03:37:38;3.97;;;3.57;;
18190;SDS011;47004;51.366;12.348;2022-08-01T03:39:46;5.73;;;3.30;;
18190;SDS011;47004;51.366;12.348;2022-08-01T03:41:54;4.97;;;3.33;;
18190;SDS011;47004;51.366;12.348;2022-08-01T03:44:00;3.77;;;2.90;;
18190;SDS011;47004;51.366;12.348;2022-08-01T03:46:07;4.33;;;3.33;;
18190;SDS011;47004;51.366;12.348;2022-08-01T03:48:13;4.13;;;3.43;;
18190;SDS011;47004;51.366;12.348;2022-08-01T03:50:20;4.53;;;3.40;;
18190;SDS011;47004;51.366;12.348;2022-08-01T03:52:24;3.60;;;3.00;;
18190;SDS011;47004;51.366;12.348;2022-08-01T03:54:30;5.93;;;2.70;;
18190;SDS011;47004;51.366;12.348;2022-08-01T03:56:34;3.43;;;3.00;;
18190;SDS011;47004;51.366;12.348;2022-08-01T03:58:39;3.63;;;3.13;;
18190;SDS011;47004;51.366;12.348;2022-08-01T04:00:43;3.53;;;3.00;;
18190;SDS011;47004;51.366;12.348;2022-08-01T04:02:46;3.50;;;2.80;;
18190;SDS011;47004;51.366;12.348;2022-08-01T04:04:49;3.33;;;2.67;;
18190;SDS011;47004;51.366;12.348;2022-08-01T04:06:51;3.97;;;2.80;;
18190;SDS011;47004;51.366;12.348;2022-08-01T04:08:54;3.10;;;2.80;;
18190;SDS011;47004;51.366;12.348;2022-08-01T04:10:56;2.80;;;2.50;;
18190;SDS011;47004;51.366;12.348;2022-08-01T04:12:59;3.37;;;2.77;;
18190;SDS011;47004;51.366;12.348;2022-08-01T04:15:03;3.00;;;2.50;;
18190;SDS011;47004;51.366;12.348;2022-08-01T04:17:06;2.97;;;2.50;;
18190;SDS011;47004;51.366;12.348;2022-08-01T04:19:08;3.17;;;2.77;;
18190;SDS011;47004;51.366;12.348;2022-08-01T04:21:10;3.43;;;2.90;;
18190;SDS011;47004;51.366;12.348;2022-08-01T04:23:12;2.87;;;2.57;;
18190;SDS011;47004;51.366;12.348;2022-08-01T04:25:19;3.47;;;2.60;;
18190;SDS011;47004;51.366;12.348;2022-08-01T04:27:25;5.43;;;2.80;;
18190;SDS011;47004;51.366;12.348;2022-08-01T04:29:30;3.07;;;2.73;;
18190;SDS011;47004;51.366;12.348;2022-08-01T04:31:35;3.43;;;2.87;;
18190;SDS011;47004;51.366;12.348;2022-08-01T04:33:40;2.63;;;2.43;;
18190;SDS011;47004;51.366;12.348;2022-08-01T04:35:47;2.93;;;2.63;;
18190;SDS011;47004;51.366;12.348;2022-08-01T04:37:50;2.70;;;2.50;;
18190;SDS011;47004;51.366;12.348;2022-08-01T04:39:54;2.60;;;2.40;;
18190;SDS011;47004;51.366;12.348;2022-08-01T04:41:57;2.50;;;2.30;;
18190;SDS011;47004;51.366;12.348;2022-08-01T04:44:03;3.87;;;2.40;;
18190;SDS011;47004;51.366;12.348;2022-08-01T04:46:06;2.83;;;2.53;;
18190;SDS011;47004;51.366;12.348;2022-08-01T04:48:11;3.67;;;2.30;;
18190;SDS011;47004;51.366;12.348;2022-08-01T04:50:16;2.70;;;2.47;;
18190;SDS011;47004;51.366;12.348;2022-08-01T04:52:21;2.57;;;2.20;;
18190;SDS011;47004;51.366;12.348;2022-08-01T04:54:24;3.30;;;2.47;;
18190;SDS011;47004;51.366;12.348;2022-08-01T04:56:26;4.20;;;2.40;;
18190;SDS011;47004;51.366;12.348;2022-08-01T04:58:28;2.50;;;2.20;;
18190;SDS011;47004;51.366;12.348;2022-08-01T05:00:29;3.23;;;2.50;;
18190;SDS011;47004;51.366;12.348;2022-08-01T05:02:34;3.30;;;2.50;;
18190;SDS011;47004;51.366;12.348;2022-08-01T05:04:37;3.00;;;2.43;;
18190;SDS011;47004;51.366;12.348;2022-08-01T05:06:40;2.87;;;2.40;;
18190;SDS011;47004;51.366;12.348;2022-08-01T05:08:42;2.50;;;2.20;;
18190;SDS011;47004;51.366;12.348;2022-08-01T05:10:44;2.23;;;2.03;;
18190;SDS011;47004;51.366;12.348;2022-08-01T05:12:46;2.90;;;2.30;;
18190;SDS011;47004;51.366;12.348;2022-08-01T05:14:48;2.53;;;2.30;;
18190;SDS011;47004;51.366;12.348;2022-08-01T05:16:50;2.50;;;2.10;;
18190;SDS011;47004;51.366;12.348;2022-08-01T05:18:51;3.33;;;2.20;;
18190;SDS011;47004;51.366;12.348;2022-08-01T05:20:55;2.60;;;2.40;;
18190;SDS011;47004;51.366;12.348;2022-08-01T05:22:57;2.30;;;2.10;;
18190;SDS011;47004;51.366;12.348;2022-08-01T05:24:59;2.63;;;2.30;;
18190;SDS011;47004;51.366;12.348;2022-08-01T05:27:01;2.70;;;2.30;;
18190;SDS011;47004;51.366;12.348;2022-08-01T05:29:03;2.87;;;2.30;;
18190;SDS011;47004;51.366;12.348;2022-08-01T05:31:05;2.60;;;2.40;;
18190;SDS011;47004;51.366;12.348;2022-08-01T05:33:07;2.97;;;2.43;;
18190;SDS011;47004;51.366;12.348;2022-08-01T05:35:09;2.57;;;2.37;;
18190;SDS011;47004;51.366;12.348;2022-08-01T05:37:12;2.57;;;2.37;;
18190;SDS011;47004;51.366;12.348;2022-08-01T05:39:14;3.37;;;2.70;;
18190;SDS011;47004;51.366;12.348;2022-08-01T05:41:16;3.53;;;2.83;;
18190;SDS011;47004;51.366;12.348;2022-08-01T05:43:18;2.53;;;2.33;;
18190;SDS011;47004;51.366;12.348;2022-08-01T05:45:20;2.90;;;2.60;;
18190;SDS011;47004;51.366;12.348;2022-08-01T05:47:22;2.87;;;2.53;;
18190;SDS011;47004;51.366;12.348;2022-08-01T05:49:24;3.60;;;2.70;;
18190;SDS011;47004;51.366;12.348;2022-08-01T05:51:26;2.53;;;2.30;;
18190;SDS011;47004;51.366;12.348;2022-08-01T05:53:29;2.93;;;2.50;;
18190;SDS011;47004;51.366;12.348;2022-08-01T05:55:34;2.60;;;2.40;;
18190;SDS011;47004;51.366;12.348;2022-08-01T05:57:36;3.13;;;2.23;;
18190;SDS011;47004;51.366;12.348;2022-08-01T05:59:38;2.60;;;2.13;;
18190;SDS011;47004;51.366;12.348;2022-08-01T06:01:40;3.50;;;2.30;;
18190;SDS011;47004;51.366;12.348;2022-08-01T06:03:42;2.60;;;2.03;;
18190;SDS011;47004;51.366;12.348;2022-08-01T06:05:44;2.60;;;2.40;;
18190;SDS011;47004;51.366;12.348;2022-08-01T06:07:46;2.60;;;2.40;;
18190;SDS011;47004;51.366;12.348;2022-08-01T06:09:49;2.40;;;2.10;;
18190;SDS011;47004;51.366;12.348;2022-08-01T06:11:51;2.40;;;1.90;;
18190;SDS011;47004;51.366;12.348;2022-08-01T06:13:53;2.30;;;2.10;;
18190;SDS011;47004;51.366;12.348;2022-08-01T06:15:54;3.27;;;2.00;;
18190;SDS011;47004;51.366;12.348;2022-08-01T06:17:57;3.00;;;2.17;;
18190;SDS011;47004;51.366;12.348;2022-08-01T06:19:59;3.00;;;2.30;;
18190;SDS011;47004;51.366;12.348;2022-08-01T06:22:01;2.70;;;2.17;;
18190;SDS011;47004;51.366;12.348;2022-08-01T06:24:04;2.10;;;1.90;;
18190;SDS011;47004;51.366;12.348;2022-08-01T06:26:07;2.47;;;1.97;;
18190;SDS011;47004;51.366;12.348;2022-08-01T06:28:10;1.90;;;1.47;;
18190;SDS011;47004;51.366;12.348;2022-08-01T06:30:12;2.33;;;1.87;;
18190;SDS011;47004;51.366;12.348;2022-08-01T06:32:14;1.90;;;1.80;;
18190;SDS011;47004;51.366;12.348;2022-08-01T06:34:17;2.00;;;1.80;;
18190;SDS011;47004;51.366;12.348;2022-08-01T06:36:19;2.13;;;1.63;;
18190;SDS011;47004;51.366;12.348;2022-08-01T06:38:21;1.70;;;1.60;;
18190;SDS011;47004;51.366;12.348;2022-08-01T06:40:24;2.07;;;1.50;;
18190;SDS011;47004;51.366;12.348;2022-08-01T06:42:28;2.20;;;1.70;;
18190;SDS011;47004;51.366;12.348;2022-08-01T06:44:31;1.70;;;1.60;;
18190;SDS011;47004;51.366;12.348;2022-08-01T06:46:34;1.93;;;1.73;;
18190;SDS011;47004;51.366;12.348;2022-08-01T06:48:36;2.70;;;1.50;;
18190;SDS011;47004;51.366;12.348;2022-08-01T06:50:39;1.60;;;1.50;;
18190;SDS011;47004;51.366;12.348;2022-08-01T06:52:41;3.20;;;1.70;;
18190;SDS011;47004;51.366;12.348;2022-08-01T06:54:43;1.80;;;1.60;;
18190;SDS011;47004;51.366;12.348;2022-08-01T06:56:49;1.97;;;1.60;;
18190;SDS011;47004;51.366;12.348;2022-08-01T06:58:52;2.23;;;1.70;;
18190;SDS011;47004;51.366;12.348;2022-08-01T07:00:59;2.27;;;1.63;;
18190;SDS011;47004;51.366;12.348;2022-08-01T07:03:01;2.40;;;1.63;;
18190;SDS011;47004;51.366;12.348;2022-08-01T07:05:02;1.53;;;1.43;;
18190;SDS011;47004;51.366;12.348;2022-08-01T07:07:05;2.97;;;1.60;;
18190;SDS011;47004;51.366;12.348;2022-08-01T07:09:07;1.73;;;1.63;;
18190;SDS011;47004;51.366;12.348;2022-08-01T07:11:09;2.40;;;1.43;;
18190;SDS011;47004;51.366;12.348;2022-08-01T07:13:11;2.23;;;1.50;;
18190;SDS011;47004;51.366;12.348;2022-08-01T07:15:16;1.60;;;1.47;;
18190;SDS011;47004;51.366;12.348;2022-08-01T07:17:20;1.67;;;1.23;;
18190;SDS011;47004;51.366;12.348;2022-08-01T07:19:22;1.30;;;1.20;;
18190;SDS011;47004;51.366;12.348;2022-08-01T07:21:24;1.47;;;1.30;;
18190;SDS011;47004;51.366;12.348;2022-08-01T07:23:26;2.10;;;1.30;;
18190;SDS011;47004;51.366;12.348;2022-08-01T07:25:28;1.33;;;1.23;;
18190;SDS011;47004;51.366;12.348;2022-08-01T07:27:30;1.40;;;1.10;;
18190;SDS011;47004;51.366;12.348;2022-08-01T07:29:32;1.73;;;1.10;;
18190;SDS011;47004;51.366;12.348;2022-08-01T07:31:35;1.30;;;1.20;;
18190;SDS011;47004;51.366;12.348;2022-08-01T07:33:37;1.93;;;1.33;;
18190;SDS011;47004;51.366;12.348;2022-08-01T07:35:39;1.20;;;1.10;;
18190;SDS011;47004;51.366;12.348;2022-08-01T07:37:41;1.33;;;1.03;;
18190;SDS011;47004;51.366;12.348;2022-08-01T07:39:43;1.60;;;1.40;;
18190;SDS011;47004;51.366;12.348;2022-08-01T07:41:45;1.40;;;1.30;;
18190;SDS011;47004;51.366;12.348;2022-08-01T07:43:47;4.13;;;1.47;;
18190;SDS011;47004;51.366;12.348;2022-08-01T07:45:49;3.27;;;1.47;;
18190;SDS011;47004;51.366;12.348;2022-08-01T07:47:52;4.57;;;1.57;;
18190;SDS011;47004;51.366;12.348;2022-08-01T07:49:58;2.40;;;1.67;;
18190;SDS011;47004;51.366;12.348;2022-08-01T07:52:01;1.87;;;1.40;;
18190;SDS011;47004;51.366;12.348;2022-08-01T07:54:03;1.63;;;1.50;;
18190;SDS011;47004;51.366;12.348;2022-08-01T07:56:05;1.63;;;1.50;;
18190;SDS011;47004;51.366;12.348;2022-08-01T07:58:07;1.93;;;1.53;;
18190;SDS011;47004;51.366;12.348;2022-08-01T08:00:09;2.03;;;1.70;;
18190;SDS011;47004;51.366;12.348;2022-08-01T08:02:12;3.73;;;1.60;;
18190;SDS011;47004;51.366;12.348;2022-08-01T08:04:15;1.93;;;1.50;;
18190;SDS011;47004;51.366;12.348;2022-08-01T08:06:17;2.20;;;2.00;;
18190;SDS011;47004;51.366;12.348;2022-08-01T08:08:19;3.50;;;2.20;;
18190;SDS011;47004;51.366;12.348;2022-08-01T08:10:21;2.27;;;1.70;;
18190;SDS011;47004;51.366;12.348;2022-08-01T08:12:23;4.87;;;2.00;;
18190;SDS011;47004;51.366;12.348;2022-08-01T08:14:25;2.90;;;1.90;;
18190;SDS011;47004;51.366;12.348;2022-08-01T08:16:26;1.80;;;1.70;;
18190;SDS011;47004;51.366;12.348;2022-08-01T08:18:28;2.13;;;1.80;;
18190;SDS011;47004;51.366;12.348;2022-08-01T08:20:32;2.27;;;1.80;;
18190;SDS011;47004;51.366;12.348;2022-08-01T08:22:34;2.10;;;1.57;;
18190;SDS011;47004;51.366;12.348;2022-08-01T08:24:36;1.93;;;1.50;;
18190;SDS011;47004;51.366;12.348;2022-08-01T08:26:38;2.43;;;1.90;;
18190;SDS011;47004;51.366;12.348;2022-08-01T08:28:41;2.40;;;1.67;;
18190;SDS011;47004;51.366;12.348;2022-08-01T08:30:42;2.03;;;1.67;;
18190;SDS011;47004;51.366;12.348;2022-08-01T08:32:44;1.73;;;1.60;;
18190;SDS011;47004;51.366;12.348;2022-08-01T08:34:47;2.10;;;1.50;;
18190;SDS011;47004;51.366;12.348;2022-08-01T08:36:50;2.90;;;2.03;;
18190;SDS011;47004;51.366;12.348;2022-08-01T08:38:52;2.20;;;1.77;;
18190;SDS011;47004;51.366;12.348;2022-08-01T08:40:54;2.60;;;1.70;;
18190;SDS011;47004;51.366;12.348;2022-08-01T08:42:57;1.90;;;1.70;;
18190;SDS011;47004;51.366;12.348;2022-08-01T08:45:01;1.80;;;1.40;;
18190;SDS011;47004;51.366;12.348;2022-08-01T08:47:02;1.73;;;1.60;;
18190;SDS011;47004;51.366;12.348;2022-08-01T08:49:06;2.07;;;1.70;;
18190;SDS011;47004;51.366;12.348;2022-08-01T08:51:08;1.67;;;1.50;;
18190;SDS011;47004;51.366;12.348;2022-08-01T08:53:13;1.70;;;1.50;;
18190;SDS011;47004;51.366;12.348;2022-08-01T08:55:16;1.90;;;1.67;;
18190;SDS011;47004;51.366;12.348;2022-08-01T08:57:19;1.70;;;1.57;;
18190;SDS011;47004;51.366;12.348;2022-08-01T08:59:21;1.63;;;1.53;;
18190;SDS011;47004;51.366;12.348;2022-08-01T09:01:25;1.63;;;1.30;;
18190;SDS011;47004;51.366;12.348;2022-08-01T09:03:27;1.37;;;1.27;;
18190;SDS011;47004;51.366;12.348;2022-08-01T09:05:29;3.43;;;1.10;;
18190;SDS011;47004;51.366;12.348;2022-08-01T09:07:31;1.40;;;1.30;;
18190;SDS011;47004;51.366;12.348;2022-08-01T09:09:34;3.97;;;1.40;;
18190;SDS011;47004;51.366;12.348;2022-08-01T09:11:37;1.10;;;1.00;;
18190;SDS011;47004;51.366;12.348;2022-08-01T09:13:39;1.37;;;1.10;;
18190;SDS011;47004;51.366;12.348;2022-08-01T09:15:42;1.00;;;0.90;;
18190;SDS011;47004;51.366;12.348;2022-08-01T09:17:44;1.83;;;0.73;;
18190;SDS011;47004;51.366;12.348;2022-08-01T09:19:47;1.43;;;0.70;;
18190;SDS011;47004;51.366;12.348;2022-08-01T09:21:57;0.50;;;0.50;;
18190;SDS011;47004;51.366;12.348;2022-08-01T09:24:00;0.63;;;0.60;;
18190;SDS011;47004;51.366;12.348;2022-08-01T09:26:06;0.60;;;0.57;;
18190;SDS011;47004;51.366;12.348;2022-08-01T09:28:09;0.73;;;0.60;;
18190;SDS011;47004;51.366;12.348;2022-08-01T09:30:11;0.40;;;0.40;;
18190;SDS011;47004;51.366;12.348;2022-08-01T09:32:15;0.90;;;0.50;;
18190;SDS011;47004;51.366;12.348;2022-08-01T09:34:23;0.50;;;0.50;;
18190;SDS011;47004;51.366;12.348;2022-08-01T09:36:26;0.50;;;0.50;;
18190;SDS011;47004;51.366;12.348;2022-08-01T09:38:44;0.70;;;0.67;;
18190;SDS011;47004;51.366;12.348;2022-08-01T09:40:47;0.60;;;0.60;;
18190;SDS011;47004;51.366;12.348;2022-08-01T09:42:53;1.80;;;0.83;;
18190;SDS011;47004;51.366;12.348;2022-08-01T09:47:36;1.17;;;1.07;;
18190;SDS011;47004;51.366;12.348;2022-08-01T09:49:39;1.10;;;0.97;;
18190;SDS011;47004;51.366;12.348;2022-08-01T09:51:42;1.33;;;0.90;;
18190;SDS011;47004;51.366;12.348;2022-08-01T09:53:44;2.07;;;1.10;;
18190;SDS011;47004;51.366;12.348;2022-08-01T09:55:47;1.87;;;1.10;;
18190;SDS011;47004;51.366;12.348;2022-08-01T09:57:55;1.10;;;1.00;;
18190;SDS011;47004;51.366;12.348;2022-08-01T10:00:01;1.20;;;1.07;;
18190;SDS011;47004;51.366;12.348;2022-08-01T10:02:04;0.93;;;0.93;;
18190;SDS011;47004;51.366;12.348;2022-08-01T10:04:07;0.70;;;0.70;;
18190;SDS011;47004;51.366;12.348;2022-08-01T10:06:18;0.87;;;0.77;;
18190;SDS011;47004;51.366;12.348;2022-08-01T10:08:22;0.63;;;0.63;;
18190;SDS011;47004;51.366;12.348;2022-08-01T10:10:25;1.63;;;0.90;;
18190;SDS011;47004;51.366;12.348;2022-08-01T10:12:28;0.70;;;0.60;;
18190;SDS011;47004;51.366;12.348;2022-08-01T10:14:31;1.63;;;0.80;;
18190;SDS011;47004;51.366;12.348;2022-08-01T10:16:34;2.77;;;0.90;;
18190;SDS011;47004;51.366;12.348;2022-08-01T10:18:36;0.80;;;0.80;;
18190;SDS011;47004;51.366;12.348;2022-08-01T10:20:41;1.17;;;0.80;;
18190;SDS011;47004;51.366;12.348;2022-08-01T10:22:44;0.80;;;0.80;;
18190;SDS011;47004;51.366;12.348;2022-08-01T10:24:46;2.40;;;0.97;;
18190;SDS011;47004;51.366;12.348;2022-08-01T10:26:50;1.10;;;1.00;;
18190;SDS011;47004;51.366;12.348;2022-08-01T10:28:55;1.03;;;1.00;;
18190;SDS011;47004;51.366;12.348;2022-08-01T10:30:58;1.47;;;1.27;;
18190;SDS011;47004;51.366;12.348;2022-08-01T10:33:15;1.00;;;0.90;;
18190;SDS011;47004;51.366;12.348;2022-08-01T10:35:19;1.00;;;1.00;;
18190;SDS011;47004;51.366;12.348;2022-08-01T10:37:21;1.50;;;1.40;;
18190;SDS011;47004;51.366;12.348;2022-08-01T10:39:23;1.63;;;1.30;;
18190;SDS011;47004;51.366;12.348;2022-08-01T10:41:28;1.90;;;1.50;;
18190;SDS011;47004;51.366;12.348;2022-08-01T10:43:30;1.73;;;1.63;;
18190;SDS011;47004;51.366;12.348;2022-08-01T10:45:32;1.77;;;1.67;;
18190;SDS011;47004;51.366;12.348;2022-08-01T10:47:38;1.70;;;1.60;;
18190;SDS011;47004;51.366;12.348;2022-08-01T10:49:47;1.90;;;1.70;;
18190;SDS011;47004;51.366;12.348;2022-08-01T10:51:52;2.80;;;1.90;;
18190;SDS011;47004;51.366;12.348;2022-08-01T10:53:55;1.80;;;1.70;;
18190;SDS011;47004;51.366;12.348;2022-08-01T10:55:58;2.30;;;2.10;;
18190;SDS011;47004;51.366;12.348;2022-08-01T10:58:01;2.17;;;2.00;;
18190;SDS011;47004;51.366;12.348;2022-08-01T11:00:10;2.43;;;1.97;;
18190;SDS011;47004;51.366;12.348;2022-08-01T11:02:25;2.50;;;2.30;;
18190;SDS011;47004;51.366;12.348;2022-08-01T11:04:35;2.53;;;2.20;;
18190;SDS011;47004;51.366;12.348;2022-08-01T11:06:49;1.63;;;1.53;;
18190;SDS011;47004;51.366;12.348;2022-08-01T11:08:55;2.07;;;1.80;;
18190;SDS011;47004;51.366;12.348;2022-08-01T11:10:59;1.90;;;1.70;;
18190;SDS011;47004;51.366;12.348;2022-08-01T11:13:02;1.80;;;1.70;;
18190;SDS011;47004;51.366;12.348;2022-08-01T11:15:17;1.80;;;1.70;;
18190;SDS011;47004;51.366;12.348;2022-08-01T11:17:32;1.90;;;1.80;;
18190;SDS011;47004;51.366;12.348;2022-08-01T11:22:10;2.00;;;1.80;;
18190;SDS011;47004;51.366;12.348;2022-08-01T11:24:12;2.00;;;1.90;;
18190;SDS011;47004;51.366;12.348;2022-08-01T11:26:15;2.37;;;1.80;;
18190;SDS011;47004;51.366;12.348;2022-08-01T11:28:18;2.20;;;1.60;;
18190;SDS011;47004;51.366;12.348;2022-08-01T11:30:24;2.33;;;1.70;;
18190;SDS011;47004;51.366;12.348;2022-08-01T11:32:26;1.67;;;1.57;;
18190;SDS011;47004;51.366;12.348;2022-08-01T11:39:26;1.80;;;1.20;;
18190;SDS011;47004;51.366;12.348;2022-08-01T11:41:29;1.20;;;1.10;;
18190;SDS011;47004;51.366;12.348;2022-08-01T11:43:32;1.27;;;1.07;;
18190;SDS011;47004;51.366;12.348;2022-08-01T11:45:46;2.83;;;1.10;;
18190;SDS011;47004;51.366;12.348;2022-08-01T11:47:49;2.73;;;1.23;;
18190;SDS011;47004;51.366;12.348;2022-08-01T11:49:52;2.03;;;1.50;;
18190;SDS011;47004;51.366;12.348;2022-08-01T11:51:58;2.30;;;2.10;;
18190;SDS011;47004;51.366;12.348;2022-08-01T11:54:02;2.10;;;1.90;;
18190;SDS011;47004;51.366;12.348;2022-08-01T11:56:04;2.57;;;1.87;;
18190;SDS011;47004;51.366;12.348;2022-08-01T11:58:07;1.90;;;1.80;;
18190;SDS011;47004;51.366;12.348;2022-08-01T12:00:10;1.87;;;1.77;;
18190;SDS011;47004;51.366;12.348;2022-08-01T12:02:15;1.80;;;1.70;;
18190;SDS011;47004;51.366;12.348;2022-08-01T12:04:18;1.70;;;1.60;;
18190;SDS011;47004;51.366;12.348;2022-08-01T12:06:26;2.00;;;1.80;;
18190;SDS011;47004;51.366;12.348;2022-08-01T12:08:29;1.93;;;1.83;;
18190;SDS011;47004;51.366;12.348;2022-08-01T12:10:34;2.25;;;1.70;;
18190;SDS011;47004;51.366;12.348;2022-08-01T12:12:43;1.70;;;1.60;;
18190;SDS011;47004;51.366;12.348;2022-08-01T12:14:52;2.72;;;1.60;;
18190;SDS011;47004;51.366;12.348;2022-08-01T12:16:58;1.40;;;1.30;;
18190;SDS011;47004;51.366;12.348;2022-08-01T12:19:00;2.40;;;1.30;;
18190;SDS011;47004;51.366;12.348;2022-08-01T12:21:02;2.35;;;1.30;;
18190;SDS011;47004;51.366;12.348;2022-08-01T12:23:05;1.42;;;1.33;;
18190;SDS011;47004;51.366;12.348;2022-08-01T12:25:09;1.23;;;1.20;;